sensor_id;sensor_type;location;lat;lon;timestamp;temperature;humidity
47590;DHT22;33316;52.298;9.056;2024-03-02T00:01:25;9.40;92.00
47590;DHT22;33316;52.298;9.056;2024-03-02T00:03:53;9.50;92.00
47590;DHT22;33316;52.298;9.056;2024-03-02T00:06:20;9.50;92.00
47590;DHT22;33316;52.298;9.056;2024-03-02T00:08:48;9.40;92.10
47590;DHT22;33316;52.298;9.056;2024-03-02T00:11:15;9.40;92.10
47590;DHT22;33316;52.298;9.056;2024-03-02T00:13:45;9.40;92.50
47590;DHT22;33316;52.298;9.056;2024-03-02T00:16:11;9.50;92.20
47590;DHT22;33316;52.298;9.056;2024-03-02T00:18:38;9.40;92.10
47590;DHT22;33316;52.298;9.056;2024-03-02T00:21:07;9.40;92.20
47590;DHT22;33316;52.298;9.056;2024-03-02T00:23:36;9.40;92.30
47590;DHT22;33316;52.298;9.056;2024-03-02T00:26:03;9.40;92.30
47590;DHT22;33316;52.298;9.056;2024-03-02T00:28:31;9.40;92.30
47590;DHT22;33316;52.298;9.056;2024-03-02T00:31:02;9.40;92.40
47590;DHT22;33316;52.298;9.056;2024-03-02T00:33:31;9.40;92.40
47590;DHT22;33316;52.298;9.056;2024-03-02T00:35:58;9.40;92.40
47590;DHT22;33316;52.298;9.056;2024-03-02T00:38:27;9.40;92.40
47590;DHT22;33316;52.298;9.056;2024-03-02T00:40:56;9.40;92.50
47590;DHT22;33316;52.298;9.056;2024-03-02T00:43:42;9.30;92.50
47590;DHT22;33316;52.298;9.056;2024-03-02T00:46:11;9.30;92.50
47590;DHT22;33316;52.298;9.056;2024-03-02T00:48:38;9.30;92.50
47590;DHT22;33316;52.298;9.056;2024-03-02T00:51:05;9.30;92.60
47590;DHT22;33316;52.298;9.056;2024-03-02T00:53:33;9.30;92.60
47590;DHT22;33316;52.298;9.056;2024-03-02T00:56:01;9.30;92.70
47590;DHT22;33316;52.298;9.056;2024-03-02T00:58:28;9.30;92.70
47590;DHT22;33316;52.298;9.056;2024-03-02T01:00:55;9.30;92.60
47590;DHT22;33316;52.298;9.056;2024-03-02T01:03:22;9.30;92.60
47590;DHT22;33316;52.298;9.056;2024-03-02T01:05:49;9.30;92.60
47590;DHT22;33316;52.298;9.056;2024-03-02T01:08:16;9.30;93.00
47590;DHT22;33316;52.298;9.056;2024-03-02T01:10:45;9.30;92.60
47590;DHT22;33316;52.298;9.056;2024-03-02T01:13:11;9.30;92.70
47590;DHT22;33316;52.298;9.056;2024-03-02T01:15:38;9.30;92.70
47590;DHT22;33316;52.298;9.056;2024-03-02T01:18:05;9.20;92.70
47590;DHT22;33316;52.298;9.056;2024-03-02T01:20:32;9.30;92.70
47590;DHT22;33316;52.298;9.056;2024-03-02T01:22:59;9.30;93.00
47590;DHT22;33316;52.298;9.056;2024-03-02T01:25:26;9.20;92.70
47590;DHT22;33316;52.298;9.056;2024-03-02T01:27:54;9.20;92.70
47590;DHT22;33316;52.298;9.056;2024-03-02T01:30:21;9.20;92.70
47590;DHT22;33316;52.298;9.056;2024-03-02T01:32:47;9.20;92.70
47590;DHT22;33316;52.298;9.056;2024-03-02T01:35:14;9.20;92.70
47590;DHT22;33316;52.298;9.056;2024-03-02T01:37:41;9.20;92.70
47590;DHT22;33316;52.298;9.056;2024-03-02T01:40:09;9.20;92.70
47590;DHT22;33316;52.298;9.056;2024-03-02T01:42:36;9.20;92.70
47590;DHT22;33316;52.298;9.056;2024-03-02T01:45:07;9.20;92.80
47590;DHT22;33316;52.298;9.056;2024-03-02T01:47:35;9.20;92.80
47590;DHT22;33316;52.298;9.056;2024-03-02T01:50:02;9.20;92.80
47590;DHT22;33316;52.298;9.056;2024-03-02T01:52:29;9.10;92.80
47590;DHT22;33316;52.298;9.056;2024-03-02T01:54:56;9.10;92.80
47590;DHT22;33316;52.298;9.056;2024-03-02T01:57:22;9.10;92.80
47590;DHT22;33316;52.298;9.056;2024-03-02T01:59:49;9.10;92.80
47590;DHT22;33316;52.298;9.056;2024-03-02T02:02:18;9.10;92.80
47590;DHT22;33316;52.298;9.056;2024-03-02T02:04:45;9.10;92.80
47590;DHT22;33316;52.298;9.056;2024-03-02T02:07:13;9.10;92.80
47590;DHT22;33316;52.298;9.056;2024-03-02T02:09:40;9.10;92.80
47590;DHT22;33316;52.298;9.056;2024-03-02T02:12:08;9.10;92.80
47590;DHT22;33316;52.298;9.056;2024-03-02T02:14:35;9.10;92.80
47590;DHT22;33316;52.298;9.056;2024-03-02T02:17:01;9.10;92.80
47590;DHT22;33316;52.298;9.056;2024-03-02T02:19:29;9.10;92.80
47590;DHT22;33316;52.298;9.056;2024-03-02T02:21:58;9.00;92.70
47590;DHT22;33316;52.298;9.056;2024-03-02T02:24:24;9.00;92.70
47590;DHT22;33316;52.298;9.056;2024-03-02T02:26:51;9.00;92.70
47590;DHT22;33316;52.298;9.056;2024-03-02T02:29:18;9.00;92.80
47590;DHT22;33316;52.298;9.056;2024-03-02T02:31:45;9.00;92.70
47590;DHT22;33316;52.298;9.056;2024-03-02T02:34:11;9.00;92.80
47590;DHT22;33316;52.298;9.056;2024-03-02T02:36:39;9.00;92.80
47590;DHT22;33316;52.298;9.056;2024-03-02T02:39:10;9.00;92.80
47590;DHT22;33316;52.298;9.056;2024-03-02T02:41:37;9.00;92.80
47590;DHT22;33316;52.298;9.056;2024-03-02T02:44:04;9.00;92.80
47590;DHT22;33316;52.298;9.056;2024-03-02T02:46:32;9.00;92.80
47590;DHT22;33316;52.298;9.056;2024-03-02T02:49:00;9.00;92.90
47590;DHT22;33316;52.298;9.056;2024-03-02T02:51:27;9.00;92.90
47590;DHT22;33316;52.298;9.056;2024-03-02T02:53:54;8.90;92.90
47590;DHT22;33316;52.298;9.056;2024-03-02T02:56:22;8.90;92.90
47590;DHT22;33316;52.298;9.056;2024-03-02T02:58:49;8.90;93.00
47590;DHT22;33316;52.298;9.056;2024-03-02T03:01:16;8.90;93.00
47590;DHT22;33316;52.298;9.056;2024-03-02T03:03:43;8.90;93.00
47590;DHT22;33316;52.298;9.056;2024-03-02T03:06:11;8.90;93.00
47590;DHT22;33316;52.298;9.056;2024-03-02T03:08:38;8.90;93.10
47590;DHT22;33316;52.298;9.056;2024-03-02T03:11:04;8.90;93.10
47590;DHT22;33316;52.298;9.056;2024-03-02T03:13:34;8.80;93.10
47590;DHT22;33316;52.298;9.056;2024-03-02T03:16:01;8.90;93.10
47590;DHT22;33316;52.298;9.056;2024-03-02T03:18:28;8.80;93.10
47590;DHT22;33316;52.298;9.056;2024-03-02T03:20:55;8.80;93.10
47590;DHT22;33316;52.298;9.056;2024-03-02T03:23:22;8.80;93.20
47590;DHT22;33316;52.298;9.056;2024-03-02T03:25:49;8.80;93.20
47590;DHT22;33316;52.298;9.056;2024-03-02T03:28:15;8.80;93.20
47590;DHT22;33316;52.298;9.056;2024-03-02T03:30:44;8.80;93.30
47590;DHT22;33316;52.298;9.056;2024-03-02T03:33:10;8.80;93.30
47590;DHT22;33316;52.298;9.056;2024-03-02T03:35:37;8.80;93.30
47590;DHT22;33316;52.298;9.056;2024-03-02T03:38:04;8.70;93.40
47590;DHT22;33316;52.298;9.056;2024-03-02T03:40:31;8.70;93.40
47590;DHT22;33316;52.298;9.056;2024-03-02T03:42:58;8.80;93.40
47590;DHT22;33316;52.298;9.056;2024-03-02T03:45:25;8.70;93.40
47590;DHT22;33316;52.298;9.056;2024-03-02T03:47:57;8.70;93.50
47590;DHT22;33316;52.298;9.056;2024-03-02T03:50:24;8.70;93.90
47590;DHT22;33316;52.298;9.056;2024-03-02T03:52:50;8.70;93.50
47590;DHT22;33316;52.298;9.056;2024-03-02T03:55:17;8.70;93.60
47590;DHT22;33316;52.298;9.056;2024-03-02T03:57:44;8.60;94.00
47590;DHT22;33316;52.298;9.056;2024-03-02T04:00:12;8.60;93.70
47590;DHT22;33316;52.298;9.056;2024-03-02T04:02:39;8.60;93.80
47590;DHT22;33316;52.298;9.056;2024-03-02T04:05:08;8.60;93.80
47590;DHT22;33316;52.298;9.056;2024-03-02T04:07:36;8.60;93.90
47590;DHT22;33316;52.298;9.056;2024-03-02T04:10:09;8.60;93.90
47590;DHT22;33316;52.298;9.056;2024-03-02T04:12:36;8.60;93.90
47590;DHT22;33316;52.298;9.056;2024-03-02T04:15:04;8.60;94.00
47590;DHT22;33316;52.298;9.056;2024-03-02T04:17:32;8.60;94.10
47590;DHT22;33316;52.298;9.056;2024-03-02T04:20:01;8.60;94.10
47590;DHT22;33316;52.298;9.056;2024-03-02T04:22:33;8.50;94.10
47590;DHT22;33316;52.298;9.056;2024-03-02T04:25:00;8.60;94.20
47590;DHT22;33316;52.298;9.056;2024-03-02T04:27:26;8.60;94.10
47590;DHT22;33316;52.298;9.056;2024-03-02T04:29:53;8.60;94.20
47590;DHT22;33316;52.298;9.056;2024-03-02T04:32:20;8.60;94.20
47590;DHT22;33316;52.298;9.056;2024-03-02T04:34:47;8.60;94.20
47590;DHT22;33316;52.298;9.056;2024-03-02T04:37:14;8.60;94.20
47590;DHT22;33316;52.298;9.056;2024-03-02T04:39:42;8.60;94.10
47590;DHT22;33316;52.298;9.056;2024-03-02T04:42:09;8.60;94.10
47590;DHT22;33316;52.298;9.056;2024-03-02T04:44:35;8.60;94.20
47590;DHT22;33316;52.298;9.056;2024-03-02T04:47:04;8.60;94.20
47590;DHT22;33316;52.298;9.056;2024-03-02T04:49:31;8.60;94.20
47590;DHT22;33316;52.298;9.056;2024-03-02T04:51:58;8.60;94.30
47590;DHT22;33316;52.298;9.056;2024-03-02T04:54:25;8.60;94.30
47590;DHT22;33316;52.298;9.056;2024-03-02T04:56:53;8.60;94.30
47590;DHT22;33316;52.298;9.056;2024-03-02T04:59:20;8.60;94.40
47590;DHT22;33316;52.298;9.056;2024-03-02T05:01:46;8.60;94.40
47590;DHT22;33316;52.298;9.056;2024-03-02T05:04:13;8.60;94.40
47590;DHT22;33316;52.298;9.056;2024-03-02T05:06:40;8.60;94.50
47590;DHT22;33316;52.298;9.056;2024-03-02T05:09:07;8.60;94.50
47590;DHT22;33316;52.298;9.056;2024-03-02T05:11:34;8.60;94.50
47590;DHT22;33316;52.298;9.056;2024-03-02T05:14:26;8.60;94.60
47590;DHT22;33316;52.298;9.056;2024-03-02T05:16:52;8.60;94.60
47590;DHT22;33316;52.298;9.056;2024-03-02T05:19:20;8.60;94.70
47590;DHT22;33316;52.298;9.056;2024-03-02T05:21:47;8.60;94.70
47590;DHT22;33316;52.298;9.056;2024-03-02T05:24:14;8.60;94.70
47590;DHT22;33316;52.298;9.056;2024-03-02T05:26:41;8.60;94.70
47590;DHT22;33316;52.298;9.056;2024-03-02T05:29:07;8.60;94.70
47590;DHT22;33316;52.298;9.056;2024-03-02T05:31:36;8.60;94.70
47590;DHT22;33316;52.298;9.056;2024-03-02T05:34:02;8.60;94.70
47590;DHT22;33316;52.298;9.056;2024-03-02T05:36:30;8.60;94.70
47590;DHT22;33316;52.298;9.056;2024-03-02T05:38:57;8.60;94.60
47590;DHT22;33316;52.298;9.056;2024-03-02T05:41:24;8.60;94.60
47590;DHT22;33316;52.298;9.056;2024-03-02T05:43:51;8.60;94.70
47590;DHT22;33316;52.298;9.056;2024-03-02T05:46:18;8.60;94.70
47590;DHT22;33316;52.298;9.056;2024-03-02T05:48:47;8.60;94.80
47590;DHT22;33316;52.298;9.056;2024-03-02T05:51:13;8.60;94.80
47590;DHT22;33316;52.298;9.056;2024-03-02T05:53:40;8.50;94.80
47590;DHT22;33316;52.298;9.056;2024-03-02T05:56:07;8.50;94.90
47590;DHT22;33316;52.298;9.056;2024-03-02T05:58:34;8.50;95.00
47590;DHT22;33316;52.298;9.056;2024-03-02T06:01:13;8.50;95.00
47590;DHT22;33316;52.298;9.056;2024-03-02T06:03:40;8.50;95.00
47590;DHT22;33316;52.298;9.056;2024-03-02T06:06:08;8.50;95.00
47590;DHT22;33316;52.298;9.056;2024-03-02T06:08:35;8.50;95.10
47590;DHT22;33316;52.298;9.056;2024-03-02T06:11:02;8.50;95.00
47590;DHT22;33316;52.298;9.056;2024-03-02T06:13:29;8.50;95.00
47590;DHT22;33316;52.298;9.056;2024-03-02T06:15:56;8.50;95.00
47590;DHT22;33316;52.298;9.056;2024-03-02T06:18:23;8.50;95.00
47590;DHT22;33316;52.298;9.056;2024-03-02T06:20:50;8.50;95.10
47590;DHT22;33316;52.298;9.056;2024-03-02T06:23:18;8.50;95.00
47590;DHT22;33316;52.298;9.056;2024-03-02T06:25:45;8.50;95.10
47590;DHT22;33316;52.298;9.056;2024-03-02T06:28:12;8.50;95.10
47590;DHT22;33316;52.298;9.056;2024-03-02T06:30:41;8.60;95.10
47590;DHT22;33316;52.298;9.056;2024-03-02T06:33:07;8.60;95.10
47590;DHT22;33316;52.298;9.056;2024-03-02T06:35:34;8.60;95.10
47590;DHT22;33316;52.298;9.056;2024-03-02T06:38:01;8.60;95.10
47590;DHT22;33316;52.298;9.056;2024-03-02T06:40:30;8.60;95.10
47590;DHT22;33316;52.298;9.056;2024-03-02T06:42:56;8.60;95.10
47590;DHT22;33316;52.298;9.056;2024-03-02T06:45:23;8.60;95.10
47590;DHT22;33316;52.298;9.056;2024-03-02T06:47:51;8.70;95.10
47590;DHT22;33316;52.298;9.056;2024-03-02T06:50:18;8.70;95.10
47590;DHT22;33316;52.298;9.056;2024-03-02T06:52:45;8.70;95.10
47590;DHT22;33316;52.298;9.056;2024-03-02T06:55:12;8.80;95.10
47590;DHT22;33316;52.298;9.056;2024-03-02T06:57:40;8.80;95.00
47590;DHT22;33316;52.298;9.056;2024-03-02T07:00:07;8.80;95.00
47590;DHT22;33316;52.298;9.056;2024-03-02T07:02:35;8.90;95.00
47590;DHT22;33316;52.298;9.056;2024-03-02T07:05:02;9.00;95.00
47590;DHT22;33316;52.298;9.056;2024-03-02T07:07:29;9.10;94.90
47590;DHT22;33316;52.298;9.056;2024-03-02T07:09:57;9.10;94.80
47590;DHT22;33316;52.298;9.056;2024-03-02T07:12:24;9.10;94.70
47590;DHT22;33316;52.298;9.056;2024-03-02T07:14:52;9.20;94.70
47590;DHT22;33316;52.298;9.056;2024-03-02T07:17:50;9.20;94.70
47590;DHT22;33316;52.298;9.056;2024-03-02T07:20:17;9.30;94.70
47590;DHT22;33316;52.298;9.056;2024-03-02T07:22:46;9.30;94.50
47590;DHT22;33316;52.298;9.056;2024-03-02T07:25:13;9.40;94.50
47590;DHT22;33316;52.298;9.056;2024-03-02T07:27:40;9.40;94.50
47590;DHT22;33316;52.298;9.056;2024-03-02T07:30:13;9.50;94.40
47590;DHT22;33316;52.298;9.056;2024-03-02T07:32:41;9.50;94.30
47590;DHT22;33316;52.298;9.056;2024-03-02T07:35:11;9.60;94.30
47590;DHT22;33316;52.298;9.056;2024-03-02T07:37:39;9.60;94.20
47590;DHT22;33316;52.298;9.056;2024-03-02T07:40:06;9.60;94.10
47590;DHT22;33316;52.298;9.056;2024-03-02T07:42:37;9.60;94.10
47590;DHT22;33316;52.298;9.056;2024-03-02T07:45:05;9.60;94.30
47590;DHT22;33316;52.298;9.056;2024-03-02T07:47:34;9.60;93.90
47590;DHT22;33316;52.298;9.056;2024-03-02T07:50:01;9.60;93.90
47590;DHT22;33316;52.298;9.056;2024-03-02T07:52:31;9.50;93.80
47590;DHT22;33316;52.298;9.056;2024-03-02T07:54:58;9.60;93.90
47590;DHT22;33316;52.298;9.056;2024-03-02T07:57:25;9.60;93.90
47590;DHT22;33316;52.298;9.056;2024-03-02T07:59:52;9.60;94.20
47590;DHT22;33316;52.298;9.056;2024-03-02T08:02:20;9.60;93.80
47590;DHT22;33316;52.298;9.056;2024-03-02T08:04:48;9.60;93.80
47590;DHT22;33316;52.298;9.056;2024-03-02T08:07:16;9.60;93.80
47590;DHT22;33316;52.298;9.056;2024-03-02T08:09:42;9.60;93.80
47590;DHT22;33316;52.298;9.056;2024-03-02T08:12:09;9.60;93.80
47590;DHT22;33316;52.298;9.056;2024-03-02T08:14:36;9.60;93.80
47590;DHT22;33316;52.298;9.056;2024-03-02T08:17:03;9.60;93.80
47590;DHT22;33316;52.298;9.056;2024-03-02T08:19:35;9.60;93.80
47590;DHT22;33316;52.298;9.056;2024-03-02T08:22:04;9.60;93.70
47590;DHT22;33316;52.298;9.056;2024-03-02T08:24:31;9.60;93.70
47590;DHT22;33316;52.298;9.056;2024-03-02T08:26:59;9.60;93.60
47590;DHT22;33316;52.298;9.056;2024-03-02T08:29:25;9.60;93.60
47590;DHT22;33316;52.298;9.056;2024-03-02T08:31:53;9.60;93.60
47590;DHT22;33316;52.298;9.056;2024-03-02T08:34:20;9.70;93.60
47590;DHT22;33316;52.298;9.056;2024-03-02T08:36:47;9.70;93.60
47590;DHT22;33316;52.298;9.056;2024-03-02T08:39:16;9.70;93.90
47590;DHT22;33316;52.298;9.056;2024-03-02T08:41:44;9.70;93.50
47590;DHT22;33316;52.298;9.056;2024-03-02T08:44:11;9.70;93.80
47590;DHT22;33316;52.298;9.056;2024-03-02T08:46:39;9.70;93.50
47590;DHT22;33316;52.298;9.056;2024-03-02T08:49:06;9.70;93.40
47590;DHT22;33316;52.298;9.056;2024-03-02T08:51:33;9.80;93.50
47590;DHT22;33316;52.298;9.056;2024-03-02T08:54:00;9.80;93.40
47590;DHT22;33316;52.298;9.056;2024-03-02T08:56:28;9.80;93.40
47590;DHT22;33316;52.298;9.056;2024-03-02T08:58:55;9.90;93.40
47590;DHT22;33316;52.298;9.056;2024-03-02T09:01:22;9.90;93.40
47590;DHT22;33316;52.298;9.056;2024-03-02T09:03:49;10.00;93.40
47590;DHT22;33316;52.298;9.056;2024-03-02T09:06:16;10.10;93.40
47590;DHT22;33316;52.298;9.056;2024-03-02T09:08:43;10.20;93.30
47590;DHT22;33316;52.298;9.056;2024-03-02T09:11:10;10.30;93.20
47590;DHT22;33316;52.298;9.056;2024-03-02T09:13:39;10.40;93.20
47590;DHT22;33316;52.298;9.056;2024-03-02T09:16:06;10.50;93.10
47590;DHT22;33316;52.298;9.056;2024-03-02T09:18:36;10.60;93.10
47590;DHT22;33316;52.298;9.056;2024-03-02T09:21:04;10.70;92.90
47590;DHT22;33316;52.298;9.056;2024-03-02T09:23:31;10.70;92.70
47590;DHT22;33316;52.298;9.056;2024-03-02T09:25:58;10.80;92.70
47590;DHT22;33316;52.298;9.056;2024-03-02T09:28:25;10.90;92.60
47590;DHT22;33316;52.298;9.056;2024-03-02T09:30:53;10.90;92.40
47590;DHT22;33316;52.298;9.056;2024-03-02T09:33:20;11.00;92.30
47590;DHT22;33316;52.298;9.056;2024-03-02T09:35:47;11.00;92.10
47590;DHT22;33316;52.298;9.056;2024-03-02T09:38:14;11.00;92.10
47590;DHT22;33316;52.298;9.056;2024-03-02T09:40:41;11.10;92.10
47590;DHT22;33316;52.298;9.056;2024-03-02T09:43:09;11.10;92.00
47590;DHT22;33316;52.298;9.056;2024-03-02T09:45:36;11.20;91.90
47590;DHT22;33316;52.298;9.056;2024-03-02T09:48:05;11.20;91.80
47590;DHT22;33316;52.298;9.056;2024-03-02T09:50:32;11.30;91.80
47590;DHT22;33316;52.298;9.056;2024-03-02T09:52:59;11.30;91.60
47590;DHT22;33316;52.298;9.056;2024-03-02T09:55:26;11.30;91.60
47590;DHT22;33316;52.298;9.056;2024-03-02T09:57:53;11.40;91.50
47590;DHT22;33316;52.298;9.056;2024-03-02T10:00:20;11.40;91.50
47590;DHT22;33316;52.298;9.056;2024-03-02T10:02:48;11.50;91.40
47590;DHT22;33316;52.298;9.056;2024-03-02T10:05:27;11.50;91.30
47590;DHT22;33316;52.298;9.056;2024-03-02T10:08:01;11.60;91.30
47590;DHT22;33316;52.298;9.056;2024-03-02T10:10:36;11.70;91.30
47590;DHT22;33316;52.298;9.056;2024-03-02T10:13:06;11.80;91.10
47590;DHT22;33316;52.298;9.056;2024-03-02T10:15:34;11.80;91.10
47590;DHT22;33316;52.298;9.056;2024-03-02T10:18:03;11.90;90.90
47590;DHT22;33316;52.298;9.056;2024-03-02T10:20:31;12.00;90.70
47590;DHT22;33316;52.298;9.056;2024-03-02T10:23:10;12.00;90.60
47590;DHT22;33316;52.298;9.056;2024-03-02T10:25:37;12.10;90.60
47590;DHT22;33316;52.298;9.056;2024-03-02T10:28:04;12.20;90.60
47590;DHT22;33316;52.298;9.056;2024-03-02T10:30:32;12.20;90.40
47590;DHT22;33316;52.298;9.056;2024-03-02T10:33:00;12.20;90.20
47590;DHT22;33316;52.298;9.056;2024-03-02T10:35:27;12.30;90.20
47590;DHT22;33316;52.298;9.056;2024-03-02T10:37:56;12.30;90.10
47590;DHT22;33316;52.298;9.056;2024-03-02T10:40:25;12.40;90.00
47590;DHT22;33316;52.298;9.056;2024-03-02T10:42:53;12.40;89.50
47590;DHT22;33316;52.298;9.056;2024-03-02T10:45:21;12.50;90.00
47590;DHT22;33316;52.298;9.056;2024-03-02T10:47:49;12.50;90.00
47590;DHT22;33316;52.298;9.056;2024-03-02T10:50:17;12.60;89.80
47590;DHT22;33316;52.298;9.056;2024-03-02T10:52:44;12.60;89.40
47590;DHT22;33316;52.298;9.056;2024-03-02T10:55:13;12.70;89.40
47590;DHT22;33316;52.298;9.056;2024-03-02T10:57:50;12.80;89.20
47590;DHT22;33316;52.298;9.056;2024-03-02T11:00:18;12.80;88.90
47590;DHT22;33316;52.298;9.056;2024-03-02T11:02:51;12.90;89.10
47590;DHT22;33316;52.298;9.056;2024-03-02T11:05:26;12.90;88.90
47590;DHT22;33316;52.298;9.056;2024-03-02T11:08:00;13.00;88.40
47590;DHT22;33316;52.298;9.056;2024-03-02T11:10:34;13.00;88.90
47590;DHT22;33316;52.298;9.056;2024-03-02T11:13:05;13.10;88.20
47590;DHT22;33316;52.298;9.056;2024-03-02T11:15:35;13.10;87.70
47590;DHT22;33316;52.298;9.056;2024-03-02T11:18:04;13.10;87.70
47590;DHT22;33316;52.298;9.056;2024-03-02T11:20:35;13.20;88.10
47590;DHT22;33316;52.298;9.056;2024-03-02T11:23:05;13.20;87.70
47590;DHT22;33316;52.298;9.056;2024-03-02T11:25:34;13.30;88.10
47590;DHT22;33316;52.298;9.056;2024-03-02T11:28:03;13.40;87.40
47590;DHT22;33316;52.298;9.056;2024-03-02T11:30:49;13.40;87.60
47590;DHT22;33316;52.298;9.056;2024-03-02T11:33:24;13.50;86.90
47590;DHT22;33316;52.298;9.056;2024-03-02T11:35:53;13.50;86.50
47590;DHT22;33316;52.298;9.056;2024-03-02T11:38:20;13.50;86.50
47590;DHT22;33316;52.298;9.056;2024-03-02T11:40:49;13.60;86.70
47590;DHT22;33316;52.298;9.056;2024-03-02T11:43:16;13.60;86.20
47590;DHT22;33316;52.298;9.056;2024-03-02T11:45:43;13.70;86.00
47590;DHT22;33316;52.298;9.056;2024-03-02T11:48:12;13.70;85.80
47590;DHT22;33316;52.298;9.056;2024-03-02T11:50:41;13.70;85.20
47590;DHT22;33316;52.298;9.056;2024-03-02T11:53:10;13.80;85.20
47590;DHT22;33316;52.298;9.056;2024-03-02T11:55:39;13.80;84.90
47590;DHT22;33316;52.298;9.056;2024-03-02T11:58:10;13.80;84.50
47590;DHT22;33316;52.298;9.056;2024-03-02T12:00:37;13.80;84.50
47590;DHT22;33316;52.298;9.056;2024-03-02T12:03:05;13.80;83.90
47590;DHT22;33316;52.298;9.056;2024-03-02T12:05:34;13.80;83.90
47590;DHT22;33316;52.298;9.056;2024-03-02T12:08:02;13.90;84.00
47590;DHT22;33316;52.298;9.056;2024-03-02T12:10:30;13.90;83.80
47590;DHT22;33316;52.298;9.056;2024-03-02T12:12:57;13.90;83.20
47590;DHT22;33316;52.298;9.056;2024-03-02T12:15:27;14.00;83.00
47590;DHT22;33316;52.298;9.056;2024-03-02T12:17:54;14.00;83.20
47590;DHT22;33316;52.298;9.056;2024-03-02T12:20:22;14.00;83.10
47590;DHT22;33316;52.298;9.056;2024-03-02T12:22:50;14.00;83.40
47590;DHT22;33316;52.298;9.056;2024-03-02T12:25:20;14.00;83.20
47590;DHT22;33316;52.298;9.056;2024-03-02T12:27:50;14.10;82.70
47590;DHT22;33316;52.298;9.056;2024-03-02T12:30:17;14.10;82.60
47590;DHT22;33316;52.298;9.056;2024-03-02T12:32:46;14.10;82.30
47590;DHT22;33316;52.298;9.056;2024-03-02T12:35:14;14.20;82.70
47590;DHT22;33316;52.298;9.056;2024-03-02T12:37:43;14.20;82.60
47590;DHT22;33316;52.298;9.056;2024-03-02T12:40:10;14.30;82.70
47590;DHT22;33316;52.298;9.056;2024-03-02T12:42:38;14.30;82.80
47590;DHT22;33316;52.298;9.056;2024-03-02T12:45:06;14.40;82.00
47590;DHT22;33316;52.298;9.056;2024-03-02T12:47:33;14.40;81.60
47590;DHT22;33316;52.298;9.056;2024-03-02T12:50:05;14.40;81.60
47590;DHT22;33316;52.298;9.056;2024-03-02T12:52:32;14.40;81.40
47590;DHT22;33316;52.298;9.056;2024-03-02T12:55:00;14.40;81.00
47590;DHT22;33316;52.298;9.056;2024-03-02T12:57:29;14.40;81.10
47590;DHT22;33316;52.298;9.056;2024-03-02T12:59:59;14.40;81.20
47590;DHT22;33316;52.298;9.056;2024-03-02T13:02:28;14.50;81.00
47590;DHT22;33316;52.298;9.056;2024-03-02T13:04:55;14.50;81.10
47590;DHT22;33316;52.298;9.056;2024-03-02T13:07:24;14.50;80.80
47590;DHT22;33316;52.298;9.056;2024-03-02T13:09:52;14.50;80.60
47590;DHT22;33316;52.298;9.056;2024-03-02T13:12:21;14.50;80.50
47590;DHT22;33316;52.298;9.056;2024-03-02T13:14:49;14.60;80.80
47590;DHT22;33316;52.298;9.056;2024-03-02T13:17:17;14.60;81.40
47590;DHT22;33316;52.298;9.056;2024-03-02T13:19:51;14.60;80.80
47590;DHT22;33316;52.298;9.056;2024-03-02T13:22:19;14.70;80.80
47590;DHT22;33316;52.298;9.056;2024-03-02T13:24:48;14.70;80.30
47590;DHT22;33316;52.298;9.056;2024-03-02T13:27:16;14.70;80.00
47590;DHT22;33316;52.298;9.056;2024-03-02T13:29:45;14.70;80.10
47590;DHT22;33316;52.298;9.056;2024-03-02T13:32:13;14.70;79.90
47590;DHT22;33316;52.298;9.056;2024-03-02T13:34:40;14.70;79.50
47590;DHT22;33316;52.298;9.056;2024-03-02T13:37:07;14.70;79.30
47590;DHT22;33316;52.298;9.056;2024-03-02T13:39:34;14.80;79.70
47590;DHT22;33316;52.298;9.056;2024-03-02T13:42:08;14.80;79.60
47590;DHT22;33316;52.298;9.056;2024-03-02T13:44:35;14.80;79.50
47590;DHT22;33316;52.298;9.056;2024-03-02T13:47:05;14.80;79.60
47590;DHT22;33316;52.298;9.056;2024-03-02T13:49:32;14.90;80.50
47590;DHT22;33316;52.298;9.056;2024-03-02T13:52:03;14.90;79.50
47590;DHT22;33316;52.298;9.056;2024-03-02T13:54:40;14.90;79.40
47590;DHT22;33316;52.298;9.056;2024-03-02T13:57:09;14.90;79.70
47590;DHT22;33316;52.298;9.056;2024-03-02T13:59:37;15.00;78.80
47590;DHT22;33316;52.298;9.056;2024-03-02T14:02:05;15.00;78.10
47590;DHT22;33316;52.298;9.056;2024-03-02T14:04:32;14.90;78.00
47590;DHT22;33316;52.298;9.056;2024-03-02T14:07:00;15.00;78.00
47590;DHT22;33316;52.298;9.056;2024-03-02T14:09:27;14.90;77.80
47590;DHT22;33316;52.298;9.056;2024-03-02T14:11:54;15.00;78.00
47590;DHT22;33316;52.298;9.056;2024-03-02T14:14:25;15.00;77.90
47590;DHT22;33316;52.298;9.056;2024-03-02T14:16:52;15.00;77.80
47590;DHT22;33316;52.298;9.056;2024-03-02T14:19:19;15.10;78.00
47590;DHT22;33316;52.298;9.056;2024-03-02T14:21:46;15.10;78.00
47590;DHT22;33316;52.298;9.056;2024-03-02T14:24:14;15.10;77.50
47590;DHT22;33316;52.298;9.056;2024-03-02T14:26:40;15.10;77.80
47590;DHT22;33316;52.298;9.056;2024-03-02T14:29:08;15.10;77.50
47590;DHT22;33316;52.298;9.056;2024-03-02T14:31:36;15.20;77.80
47590;DHT22;33316;52.298;9.056;2024-03-02T14:34:03;15.20;77.70
47590;DHT22;33316;52.298;9.056;2024-03-02T14:36:30;15.20;77.70
47590;DHT22;33316;52.298;9.056;2024-03-02T14:38:57;15.30;78.10
47590;DHT22;33316;52.298;9.056;2024-03-02T14:41:24;15.30;77.90
47590;DHT22;33316;52.298;9.056;2024-03-02T14:43:51;15.30;78.10
47590;DHT22;33316;52.298;9.056;2024-03-02T14:46:19;15.30;77.30
47590;DHT22;33316;52.298;9.056;2024-03-02T14:48:47;15.40;77.00
47590;DHT22;33316;52.298;9.056;2024-03-02T14:51:14;15.30;76.50
47590;DHT22;33316;52.298;9.056;2024-03-02T14:53:41;15.30;76.10
47590;DHT22;33316;52.298;9.056;2024-03-02T14:56:08;15.30;75.50
47590;DHT22;33316;52.298;9.056;2024-03-02T14:58:35;15.30;75.60
47590;DHT22;33316;52.298;9.056;2024-03-02T15:01:03;15.30;75.80
47590;DHT22;33316;52.298;9.056;2024-03-02T15:03:31;15.30;75.80
47590;DHT22;33316;52.298;9.056;2024-03-02T15:05:59;15.40;75.50
47590;DHT22;33316;52.298;9.056;2024-03-02T15:08:26;15.40;75.50
47590;DHT22;33316;52.298;9.056;2024-03-02T15:10:53;15.40;75.60
47590;DHT22;33316;52.298;9.056;2024-03-02T15:13:22;15.30;75.20
47590;DHT22;33316;52.298;9.056;2024-03-02T15:15:51;15.30;75.80
47590;DHT22;33316;52.298;9.056;2024-03-02T15:18:18;15.30;75.80
47590;DHT22;33316;52.298;9.056;2024-03-02T15:20:45;15.30;75.60
47590;DHT22;33316;52.298;9.056;2024-03-02T15:23:13;15.30;75.30
47590;DHT22;33316;52.298;9.056;2024-03-02T15:25:41;15.30;74.80
47590;DHT22;33316;52.298;9.056;2024-03-02T15:28:08;15.20;75.20
47590;DHT22;33316;52.298;9.056;2024-03-02T15:30:35;15.20;74.90
47590;DHT22;33316;52.298;9.056;2024-03-02T15:33:02;15.20;75.00
47590;DHT22;33316;52.298;9.056;2024-03-02T15:35:29;15.20;75.20
47590;DHT22;33316;52.298;9.056;2024-03-02T15:37:59;15.20;74.90
47590;DHT22;33316;52.298;9.056;2024-03-02T15:40:27;15.20;75.00
47590;DHT22;33316;52.298;9.056;2024-03-02T15:42:54;15.20;75.00
47590;DHT22;33316;52.298;9.056;2024-03-02T15:45:21;15.20;74.60